Time;durP1;ratioP1;P1;durP2;ratioP2;P2;SDS_P1;SDS_P2;PMS_P1;PMS_P2;Temp;Humidity;BMP_temperature;BMP_pressure;BME280_temperature;BME280_humidity;BME280_pressure;Samples;Min_cycle;Max_cycle;Signal;HPM_P1;HPM_P2
2024/01/13 00:01:52;;;;;;;43.45;21.00;;;2.60;65.10;;;;;;4995823;28;20046;-68
2024/01/13 00:04:19;;;;;;;41.58;19.42;;;2.50;65.50;;;;;;4999641;28;20026;-66
2024/01/13 00:06:44;;;;;;;47.78;22.30;;;2.50;65.60;;;;;;4997995;28;20035;-70
2024/01/13 00:09:11;;;;;;;38.97;19.77;;;2.50;65.30;;;;;;4998985;28;20126;-68
2024/01/13 00:11:36;;;;;;;38.85;20.63;;;2.40;65.70;;;;;;4998867;28;20097;-65
2024/01/13 00:14:02;;;;;;;40.25;21.85;;;2.40;65.80;;;;;;4998829;28;20093;-69
2024/01/13 00:16:28;;;;;;;36.67;19.10;;;2.40;65.80;;;;;;4998818;28;20176;-69
2024/01/13 00:18:54;;;;;;;39.53;19.25;;;2.40;65.60;;;;;;4999311;28;20026;-69
2024/01/13 00:21:20;;;;;;;40.33;19.42;;;2.40;65.70;;;;;;4997687;28;20031;-69
2024/01/13 00:23:46;;;;;;;44.40;19.90;;;2.40;65.80;;;;;;4997711;28;20037;-66
2024/01/13 00:26:12;;;;;;;42.42;20.75;;;2.30;65.70;;;;;;4998467;28;20030;-68
2024/01/13 00:28:37;;;;;;;39.17;20.58;;;2.30;66.20;;;;;;4998589;28;20029;-68
2024/01/13 00:31:04;;;;;;;35.10;19.45;;;2.20;65.90;;;;;;4998543;28;20532;-66
2024/01/13 00:33:30;;;;;;;41.78;19.55;;;2.20;65.90;;;;;;4998682;28;20391;-67
2024/01/13 00:35:57;;;;;;;37.85;20.20;;;2.20;65.90;;;;;;4998955;28;20030;-68
2024/01/13 00:38:23;;;;;;;41.28;20.10;;;2.20;66.00;;;;;;4998404;28;20448;-69
2024/01/13 00:40:49;;;;;;;40.80;20.35;;;2.20;66.20;;;;;;4998632;28;20037;-67
2024/01/13 00:43:14;;;;;;;42.92;20.08;;;2.20;66.00;;;;;;4998767;28;20026;-69
2024/01/13 00:45:41;;;;;;;42.70;21.05;;;2.10;65.90;;;;;;4998443;28;20061;-69
2024/01/13 00:48:06;;;;;;;40.22;19.95;;;2.10;65.90;;;;;;4998482;28;20054;-68
2024/01/13 00:50:33;;;;;;;42.53;20.73;;;2.10;66.10;;;;;;4998189;28;20033;-68
2024/01/13 00:52:58;;;;;;;44.33;21.00;;;2.10;66.70;;;;;;4998035;28;20093;-65
2024/01/13 00:55:25;;;;;;;38.50;20.35;;;2.10;66.50;;;;;;4998633;28;20069;-68
2024/01/13 00:57:51;;;;;;;43.65;21.33;;;2.00;66.30;;;;;;4997978;28;20030;-69
2024/01/13 01:00:17;;;;;;;40.17;19.95;;;2.00;66.40;;;;;;4998477;28;20033;-65
2024/01/13 01:02:43;;;;;;;40.30;20.83;;;2.00;66.70;;;;;;4997636;28;20104;-68
2024/01/13 01:05:08;;;;;;;40.53;21.45;;;2.00;66.70;;;;;;4997823;28;20121;-65
2024/01/13 01:07:34;;;;;;;42.15;21.45;;;2.00;67.10;;;;;;4998112;28;20030;-69
2024/01/13 01:10:00;;;;;;;47.67;19.45;;;1.90;67.00;;;;;;4998096;28;20387;-66
2024/01/13 01:12:26;;;;;;;41.88;21.08;;;1.90;66.90;;;;;;4996719;28;20022;-68
2024/01/13 01:14:52;;;;;;;39.97;19.55;;;1.90;67.50;;;;;;4995553;28;20137;-66
2024/01/13 01:17:18;;;;;;;38.67;19.58;;;1.90;66.80;;;;;;4997660;28;20038;-65
2024/01/13 01:19:44;;;;;;;40.83;20.30;;;1.90;66.80;;;;;;4998162;28;20117;-65
2024/01/13 01:22:10;;;;;;;39.92;20.40;;;1.90;66.90;;;;;;4997505;28;20432;-66
2024/01/13 01:24:35;;;;;;;46.22;21.77;;;1.90;66.80;;;;;;4997513;28;20026;-66
2024/01/13 01:27:02;;;;;;;38.10;18.63;;;1.90;67.10;;;;;;4997761;28;20054;-69
2024/01/13 01:29:27;;;;;;;36.92;18.58;;;1.90;67.00;;;;;;4997713;28;20118;-65
2024/01/13 01:31:53;;;;;;;43.90;21.50;;;1.90;67.00;;;;;;4997351;28;20049;-66
2024/01/13 01:34:19;;;;;;;33.50;18.00;;;1.90;67.30;;;;;;4997591;28;20114;-67
2024/01/13 01:36:45;;;;;;;37.30;19.63;;;1.90;67.00;;;;;;4997863;28;20142;-64
2024/01/13 01:39:11;;;;;;;35.75;19.02;;;1.90;66.90;;;;;;4997790;28;20030;-67
2024/01/13 01:41:37;;;;;;;36.63;19.27;;;1.80;66.70;;;;;;4997230;28;20408;-71
2024/01/13 01:44:03;;;;;;;40.20;18.98;;;1.80;66.90;;;;;;4997709;28;20034;-69
2024/01/13 01:46:31;;;;;;;37.53;19.45;;;1.80;67.30;;;;;;4997610;28;20034;-69
2024/01/13 01:48:59;;;;;;;35.33;18.73;;;1.80;67.00;;;;;;4997079;28;20018;-70
2024/01/13 01:51:29;;;;;;;45.03;20.65;;;1.70;67.10;;;;;;4996980;28;20110;-67
2024/01/13 01:53:56;;;;;;;36.88;19.38;;;1.80;67.70;;;;;;4997351;28;20089;-66
2024/01/13 01:56:25;;;;;;;34.33;17.45;;;1.70;67.60;;;;;;4997223;28;20037;-68
2024/01/13 01:58:53;;;;;;;39.20;19.80;;;1.70;68.00;;;;;;4996897;28;20360;-66
2024/01/13 02:01:19;;;;;;;31.70;18.15;;;1.70;68.10;;;;;;4997065;28;20019;-70
2024/01/13 02:03:47;;;;;;;34.83;18.17;;;1.70;67.70;;;;;;4996683;28;20054;-68
2024/01/13 02:06:13;;;;;;;37.08;20.45;;;1.60;67.80;;;;;;4997233;28;20082;-66
2024/01/13 02:08:40;;;;;;;37.88;19.25;;;1.60;67.90;;;;;;4996992;28;20029;-67
2024/01/13 02:11:06;;;;;;;39.15;18.38;;;1.60;67.70;;;;;;4996333;28;20037;-68
2024/01/13 02:13:32;;;;;;;37.10;17.85;;;1.60;67.70;;;;;;4996959;28;20022;-66
2024/01/13 02:15:59;;;;;;;41.13;19.48;;;1.50;67.70;;;;;;4997057;28;20329;-67
2024/01/13 02:18:25;;;;;;;38.25;17.98;;;1.50;67.70;;;;;;4996591;28;20045;-70
2024/01/13 02:20:51;;;;;;;36.72;19.67;;;1.50;68.10;;;;;;4996749;28;20026;-65
2024/01/13 02:23:17;;;;;;;32.13;17.63;;;1.50;68.30;;;;;;4996424;28;20037;-68
2024/01/13 02:25:43;;;;;;;40.83;21.45;;;1.50;68.20;;;;;;4996207;28;20022;-69
2024/01/13 02:28:09;;;;;;;39.90;21.00;;;1.50;68.60;;;;;;4996634;28;20476;-68
2024/01/13 02:30:35;;;;;;;42.15;20.58;;;1.40;68.60;;;;;;4996836;28;20432;-70
2024/01/13 02:33:01;;;;;;;38.15;20.60;;;1.40;68.90;;;;;;4996473;28;20077;-69
2024/01/13 02:35:27;;;;;;;41.38;20.00;;;1.40;69.00;;;;;;4996774;28;20357;-66
2024/01/13 02:37:53;;;;;;;40.90;21.73;;;1.40;69.20;;;;;;4996219;28;20053;-70
2024/01/13 02:40:19;;;;;;;35.10;19.63;;;1.40;69.20;;;;;;4996465;28;20018;-68
2024/01/13 02:42:45;;;;;;;40.30;21.25;;;1.40;68.80;;;;;;4996163;28;20072;-67
2024/01/13 02:45:10;;;;;;;44.55;21.33;;;1.30;68.60;;;;;;4996322;28;20084;-65
2024/01/13 02:47:43;;;;;;;39.17;18.80;;;1.20;68.80;;;;;;4996058;28;20058;-68
2024/01/13 02:50:10;;;;;;;34.20;18.30;;;1.10;69.00;;;;;;4996061;28;20026;-67
2024/01/13 02:52:36;;;;;;;32.08;17.52;;;1.00;69.30;;;;;;4995868;28;20034;-67
2024/01/13 02:55:02;;;;;;;38.15;19.10;;;1.00;69.60;;;;;;4996481;28;20369;-65
2024/01/13 02:57:28;;;;;;;34.28;17.48;;;1.00;69.70;;;;;;4996492;28;20034;-68
2024/01/13 02:59:54;;;;;;;37.83;19.45;;;1.10;69.30;;;;;;4994952;28;20048;-67
2024/01/13 03:02:19;;;;;;;35.25;17.55;;;1.10;69.10;;;;;;4995759;28;20050;-69
2024/01/13 03:04:45;;;;;;;39.83;20.92;;;1.10;69.10;;;;;;4995760;28;20364;-68
2024/01/13 03:07:11;;;;;;;40.05;19.67;;;1.10;69.30;;;;;;4996334;28;20026;-68
2024/01/13 03:09:37;;;;;;;33.40;18.63;;;1.10;69.20;;;;;;4995824;28;20459;-70
2024/01/13 03:12:03;;;;;;;32.40;17.15;;;1.10;69.30;;;;;;4995974;28;20085;-70
2024/01/13 03:14:30;;;;;;;35.03;17.55;;;1.10;69.00;;;;;;4996312;28;20098;-69
2024/01/13 03:16:56;;;;;;;41.75;19.33;;;1.00;69.00;;;;;;4995700;28;20467;-65
2024/01/13 03:19:21;;;;;;;37.35;19.60;;;1.10;69.10;;;;;;4995749;28;20026;-65
2024/01/13 03:21:47;;;;;;;39.55;18.38;;;1.00;69.20;;;;;;4996134;28;20030;-66
2024/01/13 03:24:13;;;;;;;32.08;17.27;;;1.00;69.40;;;;;;4995928;28;20560;-71
2024/01/13 03:26:39;;;;;;;36.25;18.33;;;1.00;69.50;;;;;;4995606;28;20348;-68
2024/01/13 03:29:05;;;;;;;39.08;18.75;;;0.90;69.30;;;;;;4995675;28;20053;-67
2024/01/13 03:31:31;;;;;;;30.33;16.15;;;0.90;69.60;;;;;;4995861;28;20112;-67
2024/01/13 03:33:57;;;;;;;32.42;15.85;;;0.90;69.90;;;;;;4995619;28;20474;-68
2024/01/13 03:36:23;;;;;;;27.38;15.18;;;0.90;69.90;;;;;;4995671;28;20078;-69
2024/01/13 03:38:49;;;;;;;32.50;15.85;;;0.90;69.70;;;;;;4999368;28;20415;-68
2024/01/13 03:41:18;;;;;;;28.50;15.02;;;0.90;69.90;;;;;;4999901;28;20030;-69
2024/01/13 03:43:44;;;;;;;27.65;14.52;;;0.90;69.90;;;;;;4999747;28;20023;-67
2024/01/13 03:46:10;;;;;;;32.55;15.52;;;0.90;69.70;;;;;;4999258;28;20038;-66
2024/01/13 03:48:36;;;;;;;37.10;16.73;;;0.90;69.60;;;;;;4999317;28;20030;-69
2024/01/13 03:51:02;;;;;;;35.65;16.90;;;0.80;69.20;;;;;;4999858;28;20033;-69
2024/01/13 03:53:28;;;;;;;32.42;15.98;;;0.70;70.40;;;;;;4999239;28;20027;-70
2024/01/13 03:55:54;;;;;;;35.00;15.98;;;0.60;70.30;;;;;;4999182;28;20084;-66
2024/01/13 03:58:20;;;;;;;33.63;15.70;;;0.60;69.90;;;;;;4999475;28;20069;-70
2024/01/13 04:00:46;;;;;;;38.72;17.35;;;0.60;69.90;;;;;;4999130;28;20034;-71
2024/01/13 04:03:32;;;;;;;39.25;16.08;;;0.60;70.40;;;;;;4977796;28;20053;-69
2024/01/13 04:06:00;;;;;;;37.45;17.75;;;0.60;69.90;;;;;;4977896;28;20053;-67
2024/01/13 04:08:26;;;;;;;37.53;17.10;;;0.70;69.80;;;;;;4978149;28;20039;-69
2024/01/13 04:10:52;;;;;;;38.30;15.95;;;0.70;69.60;;;;;;4978043;28;20038;-67
2024/01/13 04:13:18;;;;;;;38.55;17.65;;;0.70;69.50;;;;;;4977700;28;20106;-67
2024/01/13 04:15:44;;;;;;;40.88;18.80;;;0.70;69.50;;;;;;4978396;28;20042;-69
2024/01/13 04:18:10;;;;;;;38.75;18.50;;;0.70;69.50;;;;;;4977673;28;20456;-66
2024/01/13 04:20:36;;;;;;;40.25;17.33;;;0.80;69.70;;;;;;4977600;28;20038;-67
2024/01/13 04:23:02;;;;;;;40.63;17.13;;;0.80;69.60;;;;;;4977549;28;20143;-71
2024/01/13 04:25:28;;;;;;;29.92;15.32;;;0.80;69.60;;;;;;4977970;28;20117;-70
2024/01/13 04:27:54;;;;;;;33.53;16.75;;;0.80;69.50;;;;;;4977577;28;20106;-68
2024/01/13 04:30:21;;;;;;;37.97;16.95;;;0.80;69.10;;;;;;4977388;28;20023;-71
2024/01/13 04:32:47;;;;;;;38.00;16.65;;;0.80;69.00;;;;;;4977837;28;20039;-69
2024/01/13 04:35:13;;;;;;;41.78;17.17;;;0.80;68.90;;;;;;4977537;28;20068;-70
2024/01/13 04:37:39;;;;;;;35.30;16.98;;;0.80;68.80;;;;;;4977303;28;20034;-70
2024/01/13 04:40:06;;;;;;;39.42;18.10;;;0.80;68.90;;;;;;4980632;28;20125;-69
2024/01/13 04:42:33;;;;;;;46.47;20.15;;;0.70;69.30;;;;;;4998332;28;20487;-69
2024/01/13 04:44:59;;;;;;;42.50;19.02;;;0.70;69.60;;;;;;4998528;28;20046;-69
2024/01/13 04:47:26;;;;;;;42.42;19.50;;;0.60;69.30;;;;;;4998569;28;20033;-68
2024/01/13 04:49:52;;;;;;;44.85;19.05;;;0.60;69.50;;;;;;4998173;28;20048;-70
2024/01/13 04:52:18;;;;;;;36.88;16.52;;;0.60;69.40;;;;;;4997160;28;20115;-68
2024/01/13 04:54:44;;;;;;;39.03;18.98;;;0.50;69.20;;;;;;4998157;28;20440;-71
2024/01/13 04:57:10;;;;;;;42.67;17.23;;;0.50;69.50;;;;;;4998116;28;20101;-70
2024/01/13 04:59:36;;;;;;;43.92;18.95;;;0.60;69.50;;;;;;4998103;28;20102;-70
2024/01/13 05:02:02;;;;;;;47.55;19.60;;;0.60;69.50;;;;;;4997755;28;20062;-66
2024/01/13 05:04:28;;;;;;;41.70;18.48;;;0.60;69.70;;;;;;4998295;28;20018;-69
2024/01/13 05:06:54;;;;;;;37.03;17.33;;;0.50;69.60;;;;;;4996914;28;20026;-70
2024/01/13 05:09:20;;;;;;;39.58;18.27;;;0.50;69.60;;;;;;4998155;28;20117;-68
2024/01/13 05:11:46;;;;;;;41.75;17.48;;;0.50;69.50;;;;;;4998193;28;20102;-68
2024/01/13 05:14:12;;;;;;;37.80;17.48;;;0.50;69.40;;;;;;4997829;28;20421;-70
2024/01/13 05:16:38;;;;;;;42.63;17.77;;;0.50;69.50;;;;;;4997777;28;20045;-69
2024/01/13 05:19:04;;;;;;;46.58;19.60;;;0.50;69.40;;;;;;4997745;28;20113;-67
2024/01/13 05:21:30;;;;;;;42.15;18.50;;;0.50;69.90;;;;;;4997654;28;20023;-69
2024/01/13 05:23:56;;;;;;;48.10;21.52;;;0.50;70.10;;;;;;4997628;28;20027;-67
2024/01/13 05:26:22;;;;;;;43.60;18.42;;;0.50;69.60;;;;;;4997557;28;20530;-66
2024/01/13 05:28:48;;;;;;;43.05;19.17;;;0.50;69.60;;;;;;4998078;28;20030;-67
2024/01/13 05:31:15;;;;;;;46.97;21.63;;;0.50;69.80;;;;;;4997345;28;20058;-66
2024/01/13 05:33:41;;;;;;;39.10;18.33;;;0.50;70.00;;;;;;4997456;28;20019;-69
2024/01/13 05:36:07;;;;;;;40.00;19.33;;;0.50;69.70;;;;;;4997668;28;20030;-67
2024/01/13 05:38:33;;;;;;;46.75;19.08;;;0.50;69.50;;;;;;4997562;28;20030;-66
2024/01/13 05:40:58;;;;;;;36.53;16.83;;;0.50;69.60;;;;;;4997312;28;20084;-66
2024/01/13 05:43:24;;;;;;;43.35;19.52;;;0.40;69.90;;;;;;4997224;28;20034;-69
2024/01/13 05:45:51;;;;;;;51.10;21.55;;;0.50;69.90;;;;;;4997172;28;20026;-69
2024/01/13 05:48:17;;;;;;;50.35;20.35;;;0.50;69.80;;;;;;4997199;28;20027;-66
2024/01/13 05:50:43;;;;;;;43.05;18.58;;;0.50;70.00;;;;;;4997132;28;20032;-67
2024/01/13 05:53:08;;;;;;;48.13;20.77;;;0.50;70.00;;;;;;4996982;28;20026;-69
2024/01/13 05:55:34;;;;;;;47.78;20.38;;;0.60;70.00;;;;;;4997333;28;20049;-69
2024/01/13 05:58:00;;;;;;;51.00;21.50;;;0.50;69.80;;;;;;4997509;28;20030;-71
2024/01/13 06:00:26;;;;;;;51.13;20.67;;;0.50;69.60;;;;;;4996253;28;20034;-68
2024/01/13 06:02:53;;;;;;;52.35;21.60;;;0.50;69.40;;;;;;4996600;28;20050;-70
2024/01/13 06:05:19;;;;;;;55.85;22.10;;;0.50;69.50;;;;;;4996717;28;20027;-71
2024/01/13 06:07:45;;;;;;;47.97;21.38;;;0.50;69.80;;;;;;4997045;28;20033;-71
2024/01/13 06:10:11;;;;;;;45.50;19.88;;;0.40;69.50;;;;;;4997048;28;20055;-70
2024/01/13 06:12:37;;;;;;;41.40;18.40;;;0.40;69.70;;;;;;4996740;28;20018;-70
2024/01/13 06:15:04;;;;;;;44.25;18.52;;;0.40;69.40;;;;;;4996662;28;20019;-68
2024/01/13 06:17:30;;;;;;;36.50;17.77;;;0.40;69.50;;;;;;4996613;28;20085;-66
2024/01/13 06:19:56;;;;;;;40.28;18.05;;;0.40;69.50;;;;;;4996620;28;20034;-70
2024/01/13 06:22:22;;;;;;;36.15;16.63;;;0.30;69.40;;;;;;4996733;28;20019;-67
2024/01/13 06:24:48;;;;;;;35.53;15.40;;;0.30;69.50;;;;;;4996712;28;20464;-66
2024/01/13 06:27:14;;;;;;;32.22;15.38;;;0.20;69.50;;;;;;4996693;28;20050;-68
2024/01/13 06:29:40;;;;;;;38.83;15.65;;;0.30;69.40;;;;;;4996907;28;20022;-67
2024/01/13 06:32:05;;;;;;;31.98;13.60;;;0.20;69.90;;;;;;4996460;28;20077;-70
2024/01/13 06:34:31;;;;;;;34.47;14.55;;;0.20;69.70;;;;;;4996564;28;20023;-69
2024/01/13 06:36:58;;;;;;;28.23;13.38;;;0.20;69.80;;;;;;4996233;28;20034;-71
2024/01/13 06:39:24;;;;;;;29.40;14.57;;;0.20;70.10;;;;;;4996268;28;20050;-70
2024/01/13 06:41:49;;;;;;;29.77;14.23;;;0.30;70.30;;;;;;4996348;28;20065;-68
2024/01/13 06:44:16;;;;;;;28.73;13.85;;;0.30;70.30;;;;;;4996186;28;20042;-69
2024/01/13 06:46:42;;;;;;;24.58;13.20;;;0.30;70.10;;;;;;4995988;28;20085;-67
2024/01/13 06:49:08;;;;;;;30.27;14.63;;;0.20;70.20;;;;;;4996100;28;20026;-68
2024/01/13 06:51:33;;;;;;;26.90;14.45;;;0.20;70.30;;;;;;4996460;28;20022;-69
2024/01/13 06:53:59;;;;;;;26.50;13.00;;;0.10;70.10;;;;;;4996281;28;20449;-70
2024/01/13 06:56:25;;;;;;;27.40;13.93;;;0.10;70.30;;;;;;4996014;28;20464;-66
2024/01/13 06:58:51;;;;;;;26.25;13.68;;;0.10;70.20;;;;;;4995367;28;20054;-68
2024/01/13 07:01:17;;;;;;;25.98;12.75;;;0.10;70.30;;;;;;4995906;28;20018;-67
2024/01/13 07:03:43;;;;;;;30.85;14.57;;;0.00;70.40;;;;;;4995793;28;20050;-69
2024/01/13 07:06:09;;;;;;;32.83;14.95;;;0.10;70.70;;;;;;4996315;28;20026;-70
2024/01/13 07:08:35;;;;;;;24.45;12.80;;;0.10;70.50;;;;;;4995850;28;20105;-66
2024/01/13 07:11:01;;;;;;;25.33;12.05;;;0.20;70.10;;;;;;4995760;28;20098;-67
2024/01/13 07:13:27;;;;;;;23.92;11.77;;;0.20;70.30;;;;;;4996237;28;20053;-68
2024/01/13 07:15:53;;;;;;;27.50;13.60;;;0.20;70.30;;;;;;4995777;28;20041;-71
2024/01/13 07:18:20;;;;;;;28.20;14.40;;;0.20;70.30;;;;;;4996053;28;20499;-69
2024/01/13 07:20:45;;;;;;;34.15;16.73;;;0.30;70.40;;;;;;4995664;28;20037;-68
2024/01/13 07:23:12;;;;;;;37.75;16.48;;;0.30;71.10;;;;;;4995637;28;20022;-70
2024/01/13 07:25:38;;;;;;;27.40;14.35;;;0.30;70.90;;;;;;4995577;28;20073;-65
2024/01/13 07:28:07;;;;;;;22.63;12.65;;;0.30;70.50;;;;;;4995694;28;20026;-69
2024/01/13 07:30:33;;;;;;;37.47;14.23;;;0.30;70.70;;;;;;4995510;28;20037;-70
2024/01/13 07:32:59;;;;;;;27.35;14.90;;;0.20;70.80;;;;;;4995641;28;20029;-65
2024/01/13 07:35:26;;;;;;;28.52;13.23;;;0.30;71.00;;;;;;4996149;28;20022;-69
2024/01/13 07:37:52;;;;;;;30.35;14.38;;;0.30;71.00;;;;;;4995609;28;20456;-67
2024/01/13 07:40:18;;;;;;;29.33;14.13;;;0.40;71.20;;;;;;4995617;28;20081;-67
2024/01/13 07:42:44;;;;;;;35.65;14.77;;;0.40;71.10;;;;;;4996199;28;20027;-67
2024/01/13 07:45:10;;;;;;;33.42;14.80;;;0.50;71.10;;;;;;4995469;28;20085;-69
2024/01/13 07:47:36;;;;;;;29.70;15.40;;;0.50;71.00;;;;;;4995789;28;20104;-70
2024/01/13 07:50:03;;;;;;;33.97;16.15;;;0.60;70.90;;;;;;4995460;28;20030;-68
2024/01/13 07:52:29;;;;;;;35.83;16.05;;;0.60;71.30;;;;;;4995356;28;20023;-67
2024/01/13 07:54:55;;;;;;;38.60;17.55;;;0.70;71.40;;;;;;4995488;28;20018;-68
2024/01/13 07:57:22;;;;;;;43.05;19.80;;;0.80;71.40;;;;;;4995702;28;20026;-69
2024/01/13 07:59:47;;;;;;;45.95;18.80;;;0.80;71.40;;;;;;4995411;28;20463;-66
2024/01/13 08:02:14;;;;;;;39.80;18.95;;;0.90;71.50;;;;;;4995268;28;20046;-66
2024/01/13 08:04:43;;;;;;;45.05;20.75;;;0.90;71.60;;;;;;4995345;28;20029;-67
2024/01/13 08:07:09;;;;;;;43.17;22.05;;;1.10;71.50;;;;;;4995510;28;20045;-70
2024/01/13 08:09:35;;;;;;;40.08;21.55;;;1.10;71.80;;;;;;4995363;28;20018;-68
2024/01/13 08:12:01;;;;;;;49.00;20.60;;;1.30;72.10;;;;;;4995259;28;20023;-67
2024/01/13 08:14:29;;;;;;;44.65;21.52;;;1.40;72.00;;;;;;4995227;28;20069;-68
2024/01/13 08:16:55;;;;;;;42.83;19.40;;;1.50;72.10;;;;;;4995251;28;20036;-67
2024/01/13 08:19:22;;;;;;;35.10;18.15;;;1.60;72.20;;;;;;4995491;28;20101;-70
2024/01/13 08:21:50;;;;;;;41.42;20.08;;;1.80;72.10;;;;;;4995099;28;20048;-70
2024/01/13 08:24:16;;;;;;;46.53;23.63;;;1.90;71.90;;;;;;4997818;28;20054;-70
2024/01/13 08:26:42;;;;;;;42.90;21.88;;;2.10;71.80;;;;;;4999127;28;20069;-66
2024/01/13 08:29:09;;;;;;;50.45;24.98;;;2.20;71.40;;;;;;4998736;28;20037;-69
2024/01/13 08:31:34;;;;;;;44.40;22.92;;;2.40;71.30;;;;;;4999060;28;20101;-68
2024/01/13 08:34:02;;;;;;;45.97;22.42;;;2.60;71.40;;;;;;4998893;28;20101;-70
2024/01/13 08:36:28;;;;;;;43.55;22.85;;;2.70;71.10;;;;;;4999070;28;20040;-67
2024/01/13 08:38:54;;;;;;;44.55;23.25;;;2.90;70.90;;;;;;4998757;28;20463;-67
2024/01/13 08:41:22;;;;;;;44.10;21.20;;;3.00;70.60;;;;;;4997719;28;20035;-69
2024/01/13 08:43:49;;;;;;;47.72;24.48;;;3.10;70.60;;;;;;4998330;28;20065;-69
2024/01/13 08:46:15;;;;;;;51.20;26.58;;;3.20;70.50;;;;;;4998073;28;20030;-67
2024/01/13 08:48:41;;;;;;;48.83;24.65;;;3.40;70.30;;;;;;5593559;23;20064;-73
2024/01/13 08:51:08;;;;;;;47.83;25.67;;;3.50;70.10;;;;;;5018473;28;20032;-74
2024/01/13 08:53:33;;;;;;;52.08;28.38;;;3.70;70.00;;;;;;5017551;28;20037;-74
2024/01/13 08:55:59;;;;;;;46.35;25.55;;;3.90;69.90;;;;;;5017835;28;20030;-75
2024/01/13 08:58:25;;;;;;;45.28;26.17;;;4.00;70.10;;;;;;5017662;28;20450;-73
2024/01/13 09:00:54;;;;;;;43.45;22.55;;;4.10;70.30;;;;;;5017622;28;20025;-74
2024/01/13 09:03:22;;;;;;;38.45;20.58;;;4.20;70.00;;;;;;5016637;28;20030;-74
2024/01/13 09:05:48;;;;;;;39.35;19.00;;;4.30;69.70;;;;;;5017224;28;20076;-73
2024/01/13 09:08:14;;;;;;;34.45;19.52;;;4.40;69.40;;;;;;5017820;28;20026;-73
2024/01/13 09:10:40;;;;;;;37.25;19.30;;;4.50;69.20;;;;;;5017629;28;20032;-73
2024/01/13 09:13:06;;;;;;;32.63;17.27;;;4.70;69.00;;;;;;5017354;28;20034;-73
2024/01/13 09:15:32;;;;;;;25.75;13.60;;;4.80;68.60;;;;;;5270538;23;20051;-65
2024/01/13 09:17:58;;;;;;;25.10;13.93;;;4.90;68.40;;;;;;4978249;28;20062;-69
2024/01/13 09:20:24;;;;;;;23.98;13.52;;;5.00;68.40;;;;;;4978259;28;20041;-64
2024/01/13 09:22:50;;;;;;;24.67;14.32;;;5.10;68.20;;;;;;4978200;28;20031;-68
2024/01/13 09:25:16;;;;;;;30.42;15.98;;;5.20;68.60;;;;;;4978046;28;20084;-67
2024/01/13 09:27:42;;;;;;;23.10;13.02;;;5.40;68.40;;;;;;4978060;28;20022;-68
2024/01/13 09:30:08;;;;;;;22.52;13.20;;;5.40;67.70;;;;;;4978317;28;20023;-67
2024/01/13 09:32:34;;;;;;;23.27;12.10;;;5.50;66.30;;;;;;4978248;28;20037;-66
2024/01/13 09:35:00;;;;;;;23.40;11.52;;;5.50;66.30;;;;;;4977162;28;20023;-69
2024/01/13 09:37:26;;;;;;;22.55;12.10;;;5.60;66.30;;;;;;4977986;28;20023;-68
2024/01/13 09:39:53;;;;;;;27.13;13.38;;;5.70;65.90;;;;;;4978379;28;20098;-64
2024/01/13 09:42:37;;;;;;;24.70;12.30;;;5.80;65.00;;;;;;4977915;28;20023;-68
2024/01/13 09:45:04;;;;;;;26.45;12.63;;;5.80;65.00;;;;;;4978098;28;20018;-69
2024/01/13 09:47:30;;;;;;;24.88;13.00;;;5.90;65.00;;;;;;4977653;28;20341;-67
2024/01/13 09:49:56;;;;;;;21.65;12.30;;;5.90;64.90;;;;;;4977604;28;20098;-69
2024/01/13 09:52:22;;;;;;;26.92;13.25;;;6.00;64.70;;;;;;4977914;28;20437;-63
2024/01/13 09:54:55;;;;;;;21.60;12.18;;;6.10;64.80;;;;;;4977797;28;20385;-65
2024/01/13 09:57:20;;;;;;;23.48;12.30;;;6.20;64.00;;;;;;4977788;28;20554;-68
2024/01/13 09:59:46;;;;;;;27.23;13.73;;;6.30;64.00;;;;;;5249125;23;20054;-67
2024/01/13 10:02:13;;;;;;;24.77;13.38;;;6.30;63.60;;;;;;5036419;28;20045;-68
2024/01/13 10:04:40;;;;;;;26.50;13.63;;;6.30;63.50;;;;;;5036097;28;20040;-64
2024/01/13 10:07:10;;;;;;;24.98;12.65;;;6.40;63.20;;;;;;5035598;28;20018;-67
2024/01/13 10:09:38;;;;;;;25.50;13.80;;;6.40;63.20;;;;;;5030633;28;20022;-67
2024/01/13 10:12:08;;;;;;;25.08;13.10;;;6.40;61.30;;;;;;5249939;23;20081;-67
2024/01/13 10:14:40;;;;;;;23.98;13.57;;;6.40;60.80;;;;;;4958205;28;20094;-65
2024/01/13 10:17:06;;;;;;;25.67;13.73;;;6.40;61.30;;;;;;4958522;28;20024;-64
2024/01/13 10:19:41;;;;;;;24.73;13.32;;;6.40;61.70;;;;;;4958419;28;20019;-69
2024/01/13 10:22:08;;;;;;;25.58;14.38;;;6.40;62.10;;;;;;4958329;28;20051;-66
2024/01/13 10:24:34;;;;;;;25.83;13.57;;;6.50;60.70;;;;;;4957809;28;20066;-69
2024/01/13 10:27:01;;;;;;;22.30;14.00;;;6.50;61.30;;;;;;5221761;23;20149;-70
2024/01/13 10:29:28;;;;;;;26.35;15.68;;;6.60;61.70;;;;;;4977087;28;20027;-66
2024/01/13 10:31:55;;;;;;;26.42;14.15;;;6.60;61.10;;;;;;4977042;28;20043;-68
2024/01/13 10:34:22;;;;;;;23.88;12.75;;;6.70;61.00;;;;;;4976988;28;20371;-66
2024/01/13 10:36:48;;;;;;;25.38;12.70;;;6.70;60.70;;;;;;4976924;28;20115;-68
2024/01/13 10:39:14;;;;;;;27.23;14.75;;;6.80;60.60;;;;;;4977191;28;20019;-66
2024/01/13 10:41:44;;;;;;;24.60;13.48;;;6.80;60.10;;;;;;4977405;28;20030;-68
2024/01/13 10:46:49;;;;;;;28.63;14.05;;;6.90;59.20;;;;;;5246194;23;20140;-64
2024/01/13 10:49:38;;;;;;;25.67;13.80;;;6.90;59.50;;;;;;5014951;28;20029;-67
2024/01/13 10:52:04;;;;;;;26.45;13.43;;;6.90;59.00;;;;;;5016319;28;20080;-65
2024/01/13 10:54:33;;;;;;;25.05;12.98;;;7.00;56.80;;;;;;5016238;28;20507;-66
2024/01/13 10:56:59;;;;;;;24.38;12.43;;;7.00;57.70;;;;;;4999130;28;20018;-69
2024/01/13 10:59:32;;;;;;;21.40;11.52;;;7.00;57.80;;;;;;4996552;28;20077;-66
2024/01/13 11:01:59;;;;;;;24.52;13.15;;;7.10;59.00;;;;;;4996286;28;20064;-66
2024/01/13 11:04:26;;;;;;;31.45;14.73;;;7.20;58.70;;;;;;4996189;28;20034;-65
2024/01/13 11:06:52;;;;;;;27.48;15.52;;;7.20;56.80;;;;;;4995761;28;20030;-65
2024/01/13 11:09:21;;;;;;;33.22;17.20;;;7.20;55.40;;;;;;4996407;28;20109;-65
2024/01/13 11:12:07;;;;;;;29.48;15.27;;;7.20;55.80;;;;;;4996368;28;20054;-65
2024/01/13 11:14:38;;;;;;;29.25;16.02;;;7.20;57.10;;;;;;4994895;28;20031;-67
2024/01/13 11:17:06;;;;;;;27.88;15.52;;;7.20;57.70;;;;;;4995815;28;20030;-67
2024/01/13 11:19:33;;;;;;;32.90;16.77;;;7.30;57.60;;;;;;4996042;28;20129;-68
2024/01/13 11:21:59;;;;;;;26.13;15.38;;;7.30;56.80;;;;;;4995751;28;20022;-68
2024/01/13 11:24:26;;;;;;;26.92;15.60;;;7.30;55.90;;;;;;4995646;28;20439;-66
2024/01/13 11:26:54;;;;;;;29.90;16.02;;;7.40;56.00;;;;;;4995497;28;20026;-65
2024/01/13 11:29:23;;;;;;;28.58;15.55;;;7.40;55.80;;;;;;4995921;28;20030;-67
2024/01/13 11:31:59;;;;;;;26.90;15.38;;;7.40;55.80;;;;;;4995669;28;20073;-68
2024/01/13 11:34:27;;;;;;;26.35;14.45;;;7.30;55.50;;;;;;4995934;28;20066;-64
2024/01/13 11:36:56;;;;;;;29.48;16.23;;;7.30;55.50;;;;;;4995790;28;20030;-67
2024/01/13 11:39:22;;;;;;;25.55;13.45;;;7.30;55.80;;;;;;4995894;28;20030;-64
2024/01/13 11:41:51;;;;;;;26.73;14.52;;;7.30;56.70;;;;;;4995575;28;20528;-66
2024/01/13 11:44:24;;;;;;;26.92;15.15;;;7.40;56.30;;;;;;4978719;28;20030;-68
2024/01/13 11:47:10;;;;;;;28.15;15.35;;;7.40;56.20;;;;;;4995332;28;20053;-66
2024/01/13 11:49:40;;;;;;;28.45;16.02;;;7.50;56.30;;;;;;4996050;28;20069;-65
2024/01/13 11:52:13;;;;;;;30.08;16.23;;;7.50;57.10;;;;;;4995476;28;20022;-67
2024/01/13 11:54:41;;;;;;;29.45;16.73;;;7.60;55.40;;;;;;4994597;28;20026;-65
2024/01/13 11:57:12;;;;;;;26.88;15.57;;;7.50;54.40;;;;;;4995385;28;20149;-68
2024/01/13 11:59:39;;;;;;;29.55;15.70;;;7.50;55.30;;;;;;4981591;28;20117;-66
2024/01/13 12:02:05;;;;;;;28.88;15.90;;;7.60;55.30;;;;;;4999206;28;20160;-64
2024/01/13 12:04:34;;;;;;;29.38;17.00;;;7.50;55.20;;;;;;4999094;28;20046;-68
2024/01/13 12:07:00;;;;;;;30.52;16.70;;;7.60;55.00;;;;;;4999489;28;20037;-67
2024/01/13 12:09:30;;;;;;;30.90;16.45;;;7.50;54.70;;;;;;4999283;28;20032;-67
2024/01/13 12:11:58;;;;;;;32.00;17.42;;;7.60;55.80;;;;;;4999581;28;20027;-65
2024/01/13 12:14:29;;;;;;;31.15;16.80;;;7.60;55.50;;;;;;4999531;28;20042;-69
2024/01/13 12:16:57;;;;;;;32.33;17.27;;;7.60;54.60;;;;;;4998844;28;20077;-67
2024/01/13 12:19:27;;;;;;;29.23;15.07;;;7.60;55.20;;;;;;4998875;28;20054;-64
2024/01/13 12:21:53;;;;;;;31.90;16.75;;;7.60;55.90;;;;;;4999342;28;20034;-66
2024/01/13 12:24:30;;;;;;;31.63;16.00;;;7.70;56.00;;;;;;4999314;28;20054;-68
2024/01/13 12:26:57;;;;;;;30.05;17.10;;;7.80;56.20;;;;;;4998525;28;20037;-69
2024/01/13 12:29:29;;;;;;;32.40;16.60;;;7.90;56.30;;;;;;4998659;28;20037;-64
2024/01/13 12:32:03;;;;;;;28.83;16.15;;;7.90;56.50;;;;;;4998587;28;20049;-67
2024/01/13 12:34:32;;;;;;;25.98;14.88;;;8.00;56.90;;;;;;4998552;28;20109;-65
2024/01/13 12:36:58;;;;;;;32.05;17.25;;;8.10;55.90;;;;;;4997487;28;20023;-67